Time;durP1;ratioP1;P1;durP2;ratioP2;P2;SDS_P1;SDS_P2;PMS_P1;PMS_P2;Temp;Humidity;BMP_temperature;BMP_pressure;BME280_temperature;BME280_humidity;BME280_pressure;Samples;Min_cycle;Max_cycle;Signal;HPM_P1;HPM_P2
2022/04/02 00:00:31;;;;;;;18.90;14.10;;;;;;;-1.87;92.89;94981.61;107949;1273;34037;-75
2022/04/02 00:03:09;;;;;;;19.70;15.40;;;;;;;-1.89;92.96;94985.84;107996;1270;35298;-75
2022/04/02 00:05:40;;;;;;;21.20;15.30;;;;;;;-1.88;92.91;94983.10;108089;1270;71944;-75
2022/04/02 00:08:11;;;;;;;19.30;15.50;;;;;;;-1.84;92.99;94984.03;108058;1270;41161;-75
2022/04/02 00:10:42;;;;;;;19.10;14.70;;;;;;;-1.83;92.96;94984.38;108005;1271;31994;-76
2022/04/02 00:13:13;;;;;;;17.50;14.30;;;;;;;-1.84;93.12;94983.98;108137;1270;33603;-75
2022/04/02 00:15:44;;;;;;;19.60;14.30;;;;;;;-1.84;92.94;94983.67;108098;1270;31851;-75
2022/04/02 00:18:29;;;;;;;20.60;16.00;;;;;;;-1.85;93.03;94985.11;108011;1270;49570;-75
2022/04/02 00:21:00;;;;;;;19.30;15.10;;;;;;;-1.84;92.90;94987.46;108053;1267;41088;-75
2022/04/02 00:23:39;;;;;;;16.60;13.40;;;;;;;-1.81;93.25;94989.80;108066;1270;34239;-76
2022/04/02 00:26:11;;;;;;;18.10;14.70;;;;;;;-1.81;93.10;94993.55;108060;1270;36856;-76
2022/04/02 00:28:43;;;;;;;16.20;11.70;;;;;;;-1.83;92.95;94991.70;108036;1270;81846;-75
2022/04/02 00:31:16;;;;;;;15.50;11.50;;;;;;;-1.86;93.13;94990.19;108095;1270;45909;-75
2022/04/02 00:33:48;;;;;;;16.80;12.40;;;;;;;-1.88;93.21;94988.71;107867;1270;246306;-75
2022/04/02 00:36:22;;;;;;;17.60;14.00;;;;;;;-1.87;93.38;94992.73;108077;1270;37366;-76
2022/04/02 00:38:53;;;;;;;18.30;15.00;;;;;;;-1.87;93.32;94992.35;108081;1270;38333;-76
2022/04/02 00:41:24;;;;;;;16.80;14.70;;;;;;;-1.88;93.19;94995.67;108088;1270;35467;-76
2022/04/02 00:44:00;;;;;;;18.00;15.20;;;;;;;-1.87;93.38;94996.93;108114;1270;42363;-75
2022/04/02 00:46:31;;;;;;;16.50;13.30;;;;;;;-1.85;93.41;94997.48;107965;1270;57359;-76
2022/04/02 00:49:04;;;;;;;17.90;12.70;;;;;;;-1.84;93.60;95000.19;108009;1270;66766;-75
2022/04/02 00:51:41;;;;;;;18.30;16.10;;;;;;;-1.87;93.47;95002.95;108035;1270;33845;-75
2022/04/02 00:54:15;;;;;;;18.60;15.20;;;;;;;-1.85;93.43;95001.05;108152;1270;29825;-75
2022/04/02 00:56:49;;;;;;;19.40;15.70;;;;;;;-1.85;93.40;95000.33;108022;1270;67733;-76
2022/04/02 00:59:20;;;;;;;18.00;14.70;;;;;;;-1.85;93.68;94998.61;108106;1270;54659;-75
2022/04/02 01:01:51;;;;;;;18.10;15.90;;;;;;;-1.87;93.48;94999.11;108022;1270;69214;-75
2022/04/02 01:04:22;;;;;;;19.10;15.70;;;;;;;-1.84;93.64;95002.26;108105;1270;50621;-75
2022/04/02 01:06:53;;;;;;;18.20;15.10;;;;;;;-1.82;93.50;95004.13;108133;1269;42372;-75
2022/04/02 01:09:24;;;;;;;17.50;13.20;;;;;;;-1.80;93.30;95006.85;108080;1270;50183;-76
2022/04/02 01:11:56;;;;;;;16.80;14.00;;;;;;;-1.80;93.34;95008.02;108053;1270;42941;-75
2022/04/02 01:14:27;;;;;;;14.40;11.60;;;;;;;-1.78;93.48;95008.59;108121;1269;32030;-75
2022/04/02 01:16:58;;;;;;;14.60;12.50;;;;;;;-1.80;93.61;95009.14;108145;1270;35137;-75
2022/04/02 01:19:29;;;;;;;17.00;13.30;;;;;;;-1.83;93.56;95008.52;108047;1270;41637;-75
2022/04/02 01:22:00;;;;;;;17.90;14.30;;;;;;;-1.87;93.47;95012.84;108067;1270;47337;-75
2022/04/02 01:24:31;;;;;;;18.90;15.10;;;;;;;-1.87;93.57;95013.87;108078;1270;42039;-75
2022/04/02 01:27:02;;;;;;;18.90;14.80;;;;;;;-1.86;93.47;95012.58;108040;1270;68668;-75
2022/04/02 01:29:35;;;;;;;18.80;14.00;;;;;;;-1.82;93.53;95020.76;108131;1270;40452;-75
2022/04/02 01:32:08;;;;;;;17.60;13.10;;;;;;;-1.84;93.61;95012.30;108016;1270;38795;-75
2022/04/02 01:34:38;;;;;;;18.10;15.30;;;;;;;-1.88;93.62;95014.89;108104;1268;35754;-75
2022/04/02 01:37:09;;;;;;;15.70;10.20;;;;;;;-1.87;93.62;95017.65;107987;1270;39270;-75
2022/04/02 01:39:40;;;;;;;16.50;11.90;;;;;;;-1.86;93.85;95015.17;108124;1268;31890;-75
2022/04/02 01:42:13;;;;;;;15.60;13.20;;;;;;;-1.87;93.88;95015.20;108064;1270;40284;-75
2022/04/02 01:44:49;;;;;;;19.40;15.50;;;;;;;-1.89;93.88;95014.57;108182;1269;38213;-75
2022/04/02 01:47:20;;;;;;;17.50;13.20;;;;;;;-1.86;93.82;95020.36;108040;1270;35174;-75
2022/04/02 01:49:52;;;;;;;15.80;12.70;;;;;;;-1.82;93.83;95022.73;108068;1270;34899;-75
2022/04/02 01:52:23;;;;;;;17.30;14.40;;;;;;;-1.83;93.80;95021.82;108081;1270;33091;-75
2022/04/02 01:54:54;;;;;;;17.40;14.10;;;;;;;-1.82;93.83;95025.32;108088;1270;37706;-75
2022/04/02 01:57:24;;;;;;;19.90;15.40;;;;;;;-1.81;93.84;95022.80;108117;1270;37596;-75
2022/04/02 01:59:55;;;;;;;16.90;13.80;;;;;;;-1.80;93.68;95022.65;108005;1270;44394;-75
2022/04/02 02:02:26;;;;;;;17.80;13.90;;;;;;;-1.79;93.68;95022.96;108062;1270;34073;-75
2022/04/02 02:04:57;;;;;;;15.10;12.60;;;;;;;-1.80;93.70;95023.74;108120;1270;34802;-75
2022/04/02 02:07:28;;;;;;;16.10;13.60;;;;;;;-1.80;93.76;95021.66;108091;1270;36023;-75
2022/04/02 02:10:00;;;;;;;14.60;9.60;;;;;;;-1.82;93.68;95018.92;108073;1270;36828;-75
2022/04/02 02:12:31;;;;;;;17.20;13.90;;;;;;;-1.85;93.77;95020.27;108086;1270;33996;-75
2022/04/02 02:15:02;;;;;;;17.60;13.20;;;;;;;-1.86;93.84;95017.56;108106;1270;32607;-75
2022/04/02 02:17:33;;;;;;;13.40;10.70;;;;;;;-1.84;93.81;95019.98;107943;1271;39538;-75
2022/04/02 02:20:04;;;;;;;14.80;11.30;;;;;;;-1.83;93.71;95020.94;107913;1271;43852;-75
2022/04/02 02:22:35;;;;;;;11.10;8.50;;;;;;;-1.83;93.84;95024.57;108096;1270;37949;-75
2022/04/02 02:25:07;;;;;;;15.70;12.90;;;;;;;-1.85;94.06;95029.15;108080;1270;34634;-75
2022/04/02 02:27:39;;;;;;;15.10;12.40;;;;;;;-1.87;93.91;95032.92;108055;1270;74591;-75
2022/04/02 02:30:14;;;;;;;17.00;12.90;;;;;;;-1.86;93.80;95036.06;107977;1271;35587;-75
2022/04/02 02:32:45;;;;;;;17.80;13.20;;;;;;;-1.84;93.82;95031.55;108028;1270;36536;-75
2022/04/02 02:38:10;;;;;;;13.80;9.90;;;;;;;-1.82;93.84;95035.19;108011;1270;33612;-75
2022/04/02 02:40:42;;;;;;;12.30;9.60;;;;;;;-1.81;93.83;95030.38;107958;1271;44820;-75
2022/04/02 02:43:13;;;;;;;17.20;12.60;;;;;;;-1.85;93.76;95029.63;108067;1270;30489;-75
2022/04/02 02:45:45;;;;;;;16.50;13.40;;;;;;;-1.86;93.94;95028.05;108105;1270;35222;-75
2022/04/02 02:48:15;;;;;;;14.00;9.70;;;;;;;-1.88;93.98;95031.41;108105;1268;37596;-75
2022/04/02 02:50:46;;;;;;;13.90;11.30;;;;;;;-1.88;93.96;95033.73;108091;1270;31683;-75
2022/04/02 02:53:18;;;;;;;15.50;12.50;;;;;;;-1.88;94.00;95036.50;108006;1270;40337;-75
2022/04/02 02:55:50;;;;;;;15.90;11.60;;;;;;;-1.88;93.96;95036.80;108005;1270;34211;-76
2022/04/02 02:58:20;;;;;;;15.10;11.50;;;;;;;-1.89;94.17;95030.14;107920;1271;43159;-75
2022/04/02 03:00:51;;;;;;;17.50;12.90;;;;;;;-1.89;93.98;95031.51;108016;1271;60717;-75
2022/04/02 03:03:23;;;;;;;15.00;11.20;;;;;;;-1.87;94.03;95029.81;108036;1270;37458;-75
2022/04/02 03:05:54;;;;;;;13.80;11.10;;;;;;;-1.86;94.00;95032.15;108081;1270;35247;-75
2022/04/02 03:08:25;;;;;;;14.40;9.90;;;;;;;-1.86;93.97;95035.23;108004;1270;31157;-75
2022/04/02 03:10:56;;;;;;;13.90;9.60;;;;;;;-1.87;93.87;95033.96;108001;1270;39130;-75
2022/04/02 03:13:27;;;;;;;13.10;11.10;;;;;;;-1.89;94.09;95034.30;107970;1271;35233;-75
2022/04/02 03:15:58;;;;;;;8.90;7.00;;;;;;;-1.89;94.03;95033.16;107944;1271;52513;-75
2022/04/02 03:18:29;;;;;;;12.50;10.10;;;;;;;-1.89;93.97;95038.92;107969;1270;45030;-75
2022/04/02 03:20:59;;;;;;;13.50;10.50;;;;;;;-1.89;94.04;95039.55;108038;1270;33249;-75
2022/04/02 03:23:30;;;;;;;12.90;9.10;;;;;;;-1.89;93.88;95040.85;107968;1271;52235;-75
2022/04/02 03:26:01;;;;;;;13.10;9.10;;;;;;;-1.89;93.98;95038.04;107901;1273;34748;-75
2022/04/02 03:28:32;;;;;;;12.30;10.00;;;;;;;-1.90;94.13;95038.30;108106;1270;36674;-75
2022/04/02 03:31:03;;;;;;;11.10;8.50;;;;;;;-1.90;93.99;95038.34;108046;1271;40842;-75
2022/04/02 03:33:35;;;;;;;13.10;10.60;;;;;;;-1.92;94.20;95040.19;107980;1270;40430;-75
2022/04/02 03:36:06;;;;;;;12.80;10.50;;;;;;;-1.93;94.23;95041.67;108102;1270;36071;-75
2022/04/02 03:38:37;;;;;;;14.70;9.70;;;;;;;-1.93;94.12;95042.73;108037;1270;42450;-75
2022/04/02 03:41:08;;;;;;;12.40;9.80;;;;;;;-1.93;94.25;95041.79;108048;1270;43602;-76
2022/04/02 03:43:39;;;;;;;13.20;10.30;;;;;;;-1.93;94.16;95043.09;108084;1270;34881;-76
2022/04/02 03:48:58;;;;;;;9.10;5.90;;;;;;;-1.93;94.26;95049.33;108052;1270;45731;-75
2022/04/02 03:51:29;;;;;;;13.50;10.30;;;;;;;-1.94;94.34;95050.59;108095;1270;44329;-75
2022/04/02 03:54:00;;;;;;;14.90;11.40;;;;;;;-1.94;94.16;95049.20;108114;1270;33837;-75
2022/04/02 03:56:31;;;;;;;14.60;11.30;;;;;;;-1.93;94.16;95052.84;108085;1270;38947;-75
2022/04/02 03:59:03;;;;;;;12.10;9.90;;;;;;;-1.90;94.22;95054.19;108012;1270;39871;-75
2022/04/02 04:01:34;;;;;;;14.00;11.10;;;;;;;-1.87;94.12;95054.73;108145;1270;30359;-76
2022/04/02 04:04:05;;;;;;;13.30;9.80;;;;;;;-1.84;94.12;95057.33;108093;1270;42313;-75
2022/04/02 04:06:37;;;;;;;12.20;9.90;;;;;;;-1.84;93.99;95062.43;108072;1270;40846;-75
2022/04/02 04:09:14;;;;;;;14.20;10.90;;;;;;;-1.87;94.00;95066.02;108118;1270;40122;-75
2022/04/02 04:11:46;;;;;;;12.40;10.40;;;;;;;-1.88;94.25;95069.21;108064;1270;40521;-75
2022/04/02 04:14:17;;;;;;;13.60;10.50;;;;;;;-1.86;94.12;95070.13;108079;1270;31171;-76
2022/04/02 04:16:49;;;;;;;11.10;9.50;;;;;;;-1.85;93.99;95070.56;108030;1270;31595;-75
2022/04/02 04:19:20;;;;;;;12.20;9.60;;;;;;;-1.81;93.90;95075.21;108103;1270;33599;-75
2022/04/02 04:21:53;;;;;;;12.80;10.40;;;;;;;-1.81;93.99;95075.78;108007;1270;34781;-75
2022/04/02 04:24:23;;;;;;;11.00;9.10;;;;;;;-1.78;93.77;95080.44;108062;1270;36750;-75
2022/04/02 04:26:54;;;;;;;11.60;9.30;;;;;;;-1.78;93.81;95080.08;107988;1270;52136;-76
2022/04/02 04:29:25;;;;;;;13.80;10.00;;;;;;;-1.78;93.88;95079.40;108082;1270;32126;-75
2022/04/02 04:31:57;;;;;;;12.70;8.90;;;;;;;-1.78;93.65;95082.67;107993;1270;32390;-75
2022/04/02 04:34:28;;;;;;;12.40;9.80;;;;;;;-1.79;93.70;95078.71;108088;1270;30912;-75
2022/04/02 04:36:59;;;;;;;11.50;9.30;;;;;;;-1.81;93.85;95081.12;108034;1270;35842;-75
2022/04/02 04:39:30;;;;;;;12.40;10.20;;;;;;;-1.79;93.69;95078.71;108024;1268;32829;-75
2022/04/02 04:42:00;;;;;;;8.10;5.10;;;;;;;-1.77;93.65;95080.70;108061;1270;41955;-75
2022/04/02 04:44:32;;;;;;;12.20;9.00;;;;;;;-1.83;93.74;95080.31;108152;1270;29478;-75
2022/04/02 04:47:03;;;;;;;6.70;5.10;;;;;;;-1.84;93.90;95086.04;108069;1270;32028;-75
2022/04/02 04:49:34;;;;;;;11.80;9.70;;;;;;;-1.87;93.95;95092.45;108032;1270;34333;-75
2022/04/02 04:52:06;;;;;;;17.40;12.30;;;;;;;-1.84;93.88;95097.33;108019;1270;36042;-75
2022/04/02 04:54:37;;;;;;;13.90;9.50;;;;;;;-1.82;93.81;95092.17;108059;1269;42767;-75
2022/04/02 04:57:08;;;;;;;12.50;10.00;;;;;;;-1.80;93.91;95095.02;108073;1270;33764;-76
2022/04/02 04:59:40;;;;;;;11.00;8.70;;;;;;;-1.79;93.91;95093.41;108043;1270;36370;-75
2022/04/02 05:02:12;;;;;;;11.70;10.10;;;;;;;-1.76;93.63;95092.51;108110;1270;33536;-75
2022/04/02 05:04:43;;;;;;;11.00;9.20;;;;;;;-1.72;93.91;95094.43;108131;1270;37030;-75
2022/04/02 05:07:38;;;;;;;9.60;8.00;;;;;;;-1.66;93.62;95091.14;108117;1270;38895;-75
2022/04/02 05:10:27;;;;;;;11.90;9.20;;;;;;;-1.65;93.48;95098.91;107958;1270;40182;-75
2022/04/02 05:12:58;;;;;;;10.10;8.40;;;;;;;-1.61;93.36;95101.46;108095;1270;43415;-75
2022/04/02 05:15:30;;;;;;;10.60;8.60;;;;;;;-1.59;93.39;95105.52;108032;1270;37244;-75
2022/04/02 05:18:02;;;;;;;9.70;7.40;;;;;;;-1.60;93.28;95103.08;108073;1270;41191;-75
2022/04/02 05:20:34;;;;;;;9.40;7.70;;;;;;;-1.61;93.06;95105.67;108125;1270;39442;-75
2022/04/02 05:23:06;;;;;;;9.80;7.80;;;;;;;-1.61;93.08;95106.70;108082;1269;33815;-75
2022/04/02 05:25:38;;;;;;;10.90;8.10;;;;;;;-1.58;93.24;95108.14;108223;1270;37340;-75
2022/04/02 05:28:10;;;;;;;9.50;8.30;;;;;;;-1.57;93.10;95115.84;108102;1270;45242;-75
2022/04/02 05:30:41;;;;;;;9.50;6.70;;;;;;;-1.50;93.40;95117.77;108057;1270;34505;-75
2022/04/02 05:33:13;;;;;;;10.50;8.00;;;;;;;-1.51;93.09;95118.23;108054;1270;44392;-75
2022/04/02 05:35:44;;;;;;;8.30;6.20;;;;;;;-1.56;93.34;95122.24;108085;1270;37631;-75
2022/04/02 05:38:15;;;;;;;9.00;6.10;;;;;;;-1.62;93.06;95123.63;108123;1270;32618;-75
2022/04/02 05:40:47;;;;;;;10.90;7.60;;;;;;;-1.65;93.32;95126.71;107964;1271;42986;-75
2022/04/02 05:43:19;;;;;;;9.70;7.00;;;;;;;-1.66;93.37;95128.11;108083;1270;31884;-75
2022/04/02 05:45:50;;;;;;;12.40;7.60;;;;;;;-1.60;93.33;95130.58;108025;1270;42999;-75
2022/04/02 05:48:22;;;;;;;10.60;7.60;;;;;;;-1.49;93.35;95128.08;108039;1270;35150;-75
2022/04/02 05:50:53;;;;;;;11.00;8.00;;;;;;;-1.45;93.22;95129.89;108036;1270;34613;-75
2022/04/02 05:53:24;;;;;;;10.10;8.40;;;;;;;-1.40;93.32;95133.55;108123;1270;36054;-75
2022/04/02 05:55:57;;;;;;;8.00;6.60;;;;;;;-1.31;93.28;95131.44;107974;1270;45283;-75
2022/04/02 05:58:35;;;;;;;9.90;8.00;;;;;;;-1.26;93.05;95131.89;108013;1270;36911;-75
2022/04/02 06:01:11;;;;;;;10.70;8.20;;;;;;;-1.24;92.81;95134.04;107991;1270;31459;-74
2022/04/02 06:03:43;;;;;;;9.20;7.20;;;;;;;-1.23;92.77;95133.08;108034;1270;39950;-75
2022/04/02 06:06:15;;;;;;;9.60;7.70;;;;;;;-1.25;92.47;95131.95;108012;1270;40268;-75
2022/04/02 06:08:47;;;;;;;9.70;7.40;;;;;;;-1.26;92.38;95134.89;108082;1270;33265;-74
2022/04/02 06:11:18;;;;;;;11.60;8.60;;;;;;;-1.31;92.42;95140.70;107993;1270;41310;-75
2022/04/02 06:13:49;;;;;;;11.30;9.10;;;;;;;-1.34;92.37;95141.39;108004;1270;39233;-75
2022/04/02 06:16:21;;;;;;;10.60;7.80;;;;;;;-1.29;92.55;95139.38;108084;1270;39877;-75
2022/04/02 06:18:53;;;;;;;9.00;7.70;;;;;;;-1.30;92.54;95143.73;108072;1270;46579;-75
2022/04/02 06:21:24;;;;;;;10.70;8.70;;;;;;;-1.30;92.58;95148.20;108089;1270;41307;-74
2022/04/02 06:23:56;;;;;;;13.40;9.80;;;;;;;-1.23;92.68;95146.60;108011;1270;34236;-75
2022/04/02 06:26:28;;;;;;;10.10;8.60;;;;;;;-1.16;92.54;95148.23;108083;1269;43752;-75
2022/04/02 06:29:01;;;;;;;8.90;7.70;;;;;;;-1.09;92.50;95149.56;108223;1270;50625;-74
2022/04/02 06:31:32;;;;;;;8.60;6.80;;;;;;;-1.02;92.53;95150.48;107934;1270;49977;-74
2022/04/02 06:34:04;;;;;;;8.60;7.10;;;;;;;-0.97;92.14;95150.40;108032;1270;35650;-74
2022/04/02 06:36:35;;;;;;;6.90;5.10;;;;;;;-0.97;92.18;95154.16;108063;1270;37464;-74
2022/04/02 06:39:07;;;;;;;8.30;6.10;;;;;;;-0.93;92.12;95146.60;107946;1271;37363;-74
2022/04/02 06:41:38;;;;;;;7.00;5.80;;;;;;;-0.96;91.81;95151.77;108003;1270;43819;-74
2022/04/02 06:44:10;;;;;;;11.00;8.10;;;;;;;-0.93;91.56;95151.65;108142;1270;30588;-74
2022/04/02 06:46:42;;;;;;;14.80;10.60;;;;;;;-0.94;91.50;95152.68;108026;1270;30875;-74
2022/04/02 06:49:13;;;;;;;13.50;10.10;;;;;;;-0.97;91.47;95152.02;108070;1270;43337;-74
2022/04/02 06:51:45;;;;;;;11.10;8.50;;;;;;;-0.95;91.55;95155.43;108135;1269;45956;-75
2022/04/02 06:54:16;;;;;;;11.50;9.10;;;;;;;-0.95;91.73;95158.40;108058;1270;42492;-74
2022/04/02 06:56:48;;;;;;;7.90;6.10;;;;;;;-1.02;91.44;95161.88;108075;1270;32834;-75
2022/04/02 06:59:19;;;;;;;11.50;8.50;;;;;;;-1.03;91.24;95162.95;108100;1270;33141;-75
2022/04/02 07:01:51;;;;;;;7.20;5.70;;;;;;;-0.95;91.42;95161.04;108100;1270;35741;-75
2022/04/02 07:04:24;;;;;;;11.30;8.40;;;;;;;-0.84;91.34;95166.70;108125;1270;33885;-74
2022/04/02 07:06:55;;;;;;;8.50;6.10;;;;;;;-0.80;91.12;95168.41;108089;1270;31656;-74
2022/04/02 07:09:28;;;;;;;7.60;5.30;;;;;;;-0.83;90.74;95169.52;108111;1270;35156;-74
2022/04/02 07:12:00;;;;;;;6.80;5.50;;;;;;;-0.88;90.59;95167.77;108063;1270;33591;-74
2022/04/02 07:14:34;;;;;;;6.90;5.10;;;;;;;-0.76;90.77;95174.48;108083;1270;58591;-74
2022/04/02 07:17:06;;;;;;;5.90;5.30;;;;;;;-0.71;90.66;95176.30;107998;1270;41041;-74
2022/04/02 07:19:41;;;;;;;9.10;6.20;;;;;;;-0.75;90.18;95179.02;108084;1270;39317;-74
2022/04/02 07:22:15;;;;;;;20.70;12.50;;;;;;;-0.81;89.96;95176.77;108081;1270;34769;-74
2022/04/02 07:24:47;;;;;;;9.50;6.80;;;;;;;-0.91;89.92;95178.88;107948;1273;37578;-74
2022/04/02 07:27:23;;;;;;;8.00;6.40;;;;;;;-1.02;89.80;95181.38;107963;1270;36087;-75
2022/04/02 07:29:57;;;;;;;10.80;7.10;;;;;;;-1.07;90.27;95189.39;108044;1270;35409;-74
2022/04/02 07:32:28;;;;;;;9.60;7.40;;;;;;;-1.05;90.02;95189.09;108018;1270;33986;-74
2022/04/02 07:35:00;;;;;;;19.80;13.10;;;;;;;-1.02;90.50;95190.27;108084;1270;38447;-74
2022/04/02 07:37:42;;;;;;;7.80;6.40;;;;;;;-1.02;90.41;95192.46;108011;1270;38976;-74
2022/04/02 07:40:21;;;;;;;7.90;5.80;;;;;;;-1.06;89.98;95196.77;108162;1270;36564;-74
2022/04/02 07:43:13;;;;;;;7.90;6.40;;;;;;;-1.07;90.19;95199.48;108069;1270;44139;-74
2022/04/02 07:45:47;;;;;;;7.20;6.20;;;;;;;-0.99;90.27;95198.64;108046;1271;96868;-74
2022/04/02 07:48:21;;;;;;;8.20;6.50;;;;;;;-0.85;90.59;95200.81;108088;1270;99770;-73
2022/04/02 07:50:54;;;;;;;9.40;7.50;;;;;;;-0.67;90.64;95199.89;108105;1270;30530;-74
2022/04/02 07:53:29;;;;;;;9.00;7.10;;;;;;;-0.54;90.73;95204.04;108106;1269;32960;-73
2022/04/02 07:56:05;;;;;;;7.50;6.00;;;;;;;-0.44;90.59;95205.20;108112;1270;33569;-74
2022/04/02 07:58:40;;;;;;;25.20;17.00;;;;;;;-0.34;90.06;95209.43;108117;1270;37549;-73
2022/04/02 08:01:18;;;;;;;11.70;8.80;;;;;;;-0.32;89.96;95212.27;108086;1270;35500;-73
2022/04/02 08:03:49;;;;;;;9.20;7.20;;;;;;;-0.38;89.54;95210.96;108049;1270;35710;-74
2022/04/02 08:06:22;;;;;;;8.70;6.40;;;;;;;-0.34;89.57;95220.20;108033;1270;39714;-74
2022/04/02 08:08:56;;;;;;;10.80;8.50;;;;;;;-0.34;89.21;95218.50;107908;1273;49315;-74
2022/04/02 08:11:28;;;;;;;12.80;10.00;;;;;;;-0.42;89.09;95221.79;108107;1270;34639;-73
2022/04/02 08:14:01;;;;;;;12.40;8.50;;;;;;;-0.44;89.12;95225.92;108135;1270;32613;-74
2022/04/02 08:16:37;;;;;;;9.30;7.70;;;;;;;-0.39;88.92;95220.84;108103;1270;29650;-74
2022/04/02 08:19:09;;;;;;;8.80;7.10;;;;;;;-0.46;88.51;95223.77;108039;1270;41951;-74
2022/04/02 08:21:41;;;;;;;9.00;7.10;;;;;;;-0.47;88.88;95228.17;107813;1273;75781;-74
2022/04/02 08:24:12;;;;;;;8.10;6.10;;;;;;;-0.43;88.96;95230.95;108098;1270;46071;-74
2022/04/02 08:26:56;;;;;;;8.40;6.60;;;;;;;-0.45;88.54;95236.17;108034;1270;42854;-73
2022/04/02 08:29:46;;;;;;;9.30;6.50;;;;;;;-0.50;88.19;95233.56;107942;1273;35477;-74
2022/04/02 08:32:27;;;;;;;9.10;7.30;;;;;;;-0.64;88.35;95237.25;108047;1270;30024;-73
2022/04/02 08:35:06;;;;;;;8.30;6.60;;;;;;;-0.62;88.57;95245.44;108064;1270;32140;-74
2022/04/02 08:38:00;;;;;;;8.10;6.50;;;;;;;-0.50;88.89;95243.36;108113;1270;42279;-73
2022/04/02 08:41:03;;;;;;;11.00;7.80;;;;;;;-0.43;88.60;95245.41;107899;1271;43245;-74
2022/04/02 08:44:09;;;;;;;10.10;6.80;;;;;;;-0.55;88.45;95247.15;108116;1270;36953;-74
2022/04/02 08:47:02;;;;;;;6.90;5.40;;;;;;;-0.58;88.48;95246.06;108095;1270;42385;-74
2022/04/02 08:49:42;;;;;;;9.00;7.00;;;;;;;-0.85;88.01;95252.58;107991;1270;44976;-74
2022/04/02 08:52:24;;;;;;;7.50;5.90;;;;;;;-0.90;88.43;95256.26;108099;1270;45110;-74
2022/04/02 08:55:13;;;;;;;10.30;7.90;;;;;;;-0.80;88.72;95260.92;108031;1270;38236;-74
2022/04/02 08:58:02;;;;;;;10.30;8.50;;;;;;;-0.66;88.94;95258.05;108056;1270;32589;-74
2022/04/02 09:00:43;;;;;;;9.20;7.80;;;;;;;-0.62;88.53;95261.78;108049;1270;31801;-74
2022/04/02 09:03:41;;;;;;;11.20;8.70;;;;;;;-0.58;88.59;95261.63;108142;1270;31871;-74
2022/04/02 09:06:50;;;;;;;7.00;5.70;;;;;;;-0.69;88.27;95263.20;107982;1270;34055;-74
2022/04/02 09:09:45;;;;;;;8.60;7.10;;;;;;;-0.93;88.25;95268.34;108115;1270;41143;-74
2022/04/02 09:12:43;;;;;;;10.60;6.90;;;;;;;-0.91;88.36;95266.48;108171;1270;31120;-74
2022/04/02 09:15:23;;;;;;;9.40;8.20;;;;;;;-1.05;88.48;95271.90;108009;1271;40796;-74
2022/04/02 09:18:10;;;;;;;9.40;7.00;;;;;;;-1.10;88.61;95276.27;107903;1271;44013;-74
2022/04/02 09:20:56;;;;;;;8.70;5.90;;;;;;;-1.00;88.66;95275.15;108164;1270;30950;-74
2022/04/02 09:23:43;;;;;;;10.80;8.10;;;;;;;-1.15;89.05;95277.69;108011;1271;36308;-74
2022/04/02 09:26:56;;;;;;;11.40;9.10;;;;;;;-1.25;89.07;95279.84;108053;1270;43535;-74
2022/04/02 09:29:31;;;;;;;12.10;9.10;;;;;;;-1.17;89.59;95274.58;107991;1270;43686;-74
2022/04/02 09:32:39;;;;;;;9.90;8.20;;;;;;;-1.01;89.96;95275.70;107993;1271;32192;-74
2022/04/02 09:35:51;;;;;;;13.20;9.90;;;;;;;-0.87;89.46;95279.38;107974;1270;56527;-74
2022/04/02 09:38:59;;;;;;;11.50;9.00;;;;;;;-0.79;89.55;95288.77;108091;1270;31104;-74
2022/04/02 09:41:47;;;;;;;11.60;9.30;;;;;;;-0.70;89.21;95284.17;108054;1270;30881;-74
2022/04/02 09:44:39;;;;;;;11.20;8.90;;;;;;;-0.68;89.11;95290.09;108084;1270;39923;-74
2022/04/02 09:47:19;;;;;;;12.50;8.60;;;;;;;-0.63;88.93;95287.90;108078;1270;46515;-74
2022/04/02 09:50:05;;;;;;;13.50;9.80;;;;;;;-0.78;88.60;95293.41;108115;1270;33368;-75
2022/04/02 09:52:42;;;;;;;11.20;8.40;;;;;;;-0.85;88.54;95295.60;108083;1270;42865;-74
2022/04/02 09:55:17;;;;;;;11.30;9.20;;;;;;;-0.80;88.57;95297.67;108143;1270;42757;-74
2022/04/02 09:58:19;;;;;;;12.20;8.00;;;;;;;-0.79;88.70;95298.13;108029;1270;42775;-75
2022/04/02 10:00:59;;;;;;;13.60;10.50;;;;;;;-0.88;88.71;95299.20;107957;1270;46497;-74
2022/04/02 10:03:38;;;;;;;26.60;20.60;;;;;;;-0.97;88.74;95302.94;108055;1270;32605;-74
2022/04/02 10:06:25;;;;;;;15.10;12.20;;;;;;;-0.90;89.05;95298.03;108073;1270;38807;-74
2022/04/02 10:09:11;;;;;;;13.00;11.00;;;;;;;-0.86;88.91;95296.67;108017;1271;46592;-74
2022/04/02 10:11:48;;;;;;;14.30;12.50;;;;;;;-0.82;88.96;95294.98;108082;1270;50135;-74
2022/04/02 10:14:22;;;;;;;14.60;10.20;;;;;;;-0.79;88.83;95295.54;108000;1270;37678;-75
2022/04/02 10:16:55;;;;;;;13.50;11.00;;;;;;;-0.68;89.02;95297.69;107984;1271;32393;-74
2022/04/02 10:19:30;;;;;;;13.30;10.10;;;;;;;-0.60;89.18;95296.00;107972;1270;42856;-74
2022/04/02 10:22:06;;;;;;;12.60;9.90;;;;;;;-0.64;88.66;95300.54;108081;1270;37731;-74
2022/04/02 10:24:42;;;;;;;12.00;9.60;;;;;;;-0.67;88.61;95309.77;108045;1270;50126;-74
2022/04/02 10:27:26;;;;;;;12.90;10.20;;;;;;;-0.76;88.49;95305.41;108061;1270;34292;-74
2022/04/02 10:30:09;;;;;;;12.90;9.10;;;;;;;-0.73;88.49;95306.02;108078;1270;37548;-74
2022/04/02 10:33:26;;;;;;;13.60;10.50;;;;;;;-0.74;88.58;95308.39;108056;1270;38701;-74
2022/04/02 10:35:54;;;;;;;11.80;10.50;;;;;;;-0.79;88.27;95308.81;108080;1271;33030;-75
2022/04/02 10:38:36;;;;;;;13.30;10.60;;;;;;;-0.70;88.51;95311.17;107980;1270;35603;-73
2022/04/02 10:41:12;;;;;;;12.20;10.20;;;;;;;-0.69;88.26;95316.41;108051;1270;33434;-74
2022/04/02 10:43:57;;;;;;;11.00;9.60;;;;;;;-0.62;88.44;95319.35;108152;1270;34518;-74
2022/04/02 10:46:31;;;;;;;13.90;11.00;;;;;;;-0.60;88.41;95318.19;108050;1270;34485;-74
2022/04/02 10:49:05;;;;;;;12.00;10.20;;;;;;;-0.64;88.15;95321.67;108075;1270;32067;-74
2022/04/02 10:51:39;;;;;;;16.90;12.20;;;;;;;-0.62;88.50;95317.32;107988;1270;40440;-74
2022/04/02 10:54:13;;;;;;;13.60;11.30;;;;;;;-0.65;88.30;95318.02;108102;1269;34159;-74
2022/04/02 10:56:46;;;;;;;16.50;13.10;;;;;;;-0.66;88.13;95322.10;108110;1270;38066;-74
2022/04/02 10:59:20;;;;;;;14.90;11.40;;;;;;;-0.74;88.31;95319.02;108123;1270;34465;-74
2022/04/02 11:01:54;;;;;;;14.50;8.90;;;;;;;-0.79;88.40;95319.95;108146;1269;46431;-75
2022/04/02 11:04:31;;;;;;;13.60;10.90;;;;;;;-0.87;88.29;95321.39;108087;1270;35523;-74
2022/04/02 11:07:02;;;;;;;13.20;11.10;;;;;;;-0.95;88.43;95325.90;107986;1270;48130;-74
2022/04/02 11:09:36;;;;;;;15.10;11.80;;;;;;;-0.88;88.65;95329.73;107973;1271;34312;-74
2022/04/02 11:12:11;;;;;;;15.90;11.90;;;;;;;-0.84;88.62;95331.48;108142;1270;33609;-74
2022/04/02 11:14:44;;;;;;;15.60;11.60;;;;;;;-0.73;88.92;95334.91;108132;1270;36606;-74
2022/04/02 11:17:32;;;;;;;12.60;8.90;;;;;;;-0.60;89.09;95337.12;108079;1270;38262;-75
2022/04/02 11:20:10;;;;;;;15.40;10.50;;;;;;;-0.71;88.48;95335.04;108111;1270;34227;-74
2022/04/02 11:23:13;;;;;;;16.00;13.50;;;;;;;-0.85;88.21;95340.87;108038;1271;46609;-74
2022/04/02 11:25:49;;;;;;;17.30;13.30;;;;;;;-0.87;88.64;95344.67;108013;1271;33240;-74
2022/04/02 11:28:22;;;;;;;17.90;14.10;;;;;;;-0.83;88.61;95346.59;108100;1270;32156;-75
2022/04/02 11:31:03;;;;;;;16.30;12.60;;;;;;;-0.75;89.00;95345.85;108206;1270;36540;-74
2022/04/02 11:33:47;;;;;;;17.20;12.20;;;;;;;-0.68;88.64;95344.30;108045;1271;31755;-74
2022/04/02 11:36:22;;;;;;;18.70;15.00;;;;;;;-0.74;88.65;95348.06;108102;1270;33823;-74
2022/04/02 11:38:58;;;;;;;18.20;15.00;;;;;;;-0.70;88.92;95348.86;108078;1270;34539;-74
2022/04/02 11:41:36;;;;;;;17.00;13.40;;;;;;;-0.55;89.11;95350.68;108101;1270;34724;-74
2022/04/02 11:44:10;;;;;;;15.00;12.30;;;;;;;-0.50;88.69;95352.84;108077;1270;42277;-74
2022/04/02 11:46:59;;;;;;;15.90;12.80;;;;;;;-0.52;88.39;95356.92;108044;1270;51734;-74
2022/04/02 11:49:32;;;;;;;15.10;10.70;;;;;;;-0.52;88.12;95357.34;108050;1270;37634;-74
2022/04/02 11:52:07;;;;;;;15.30;12.10;;;;;;;-0.65;87.72;95359.23;108089;1270;34829;-74
2022/04/02 11:54:58;;;;;;;14.60;11.30;;;;;;;-0.80;87.42;95363.29;108088;1270;32360;-74
2022/04/02 11:57:30;;;;;;;16.20;12.10;;;;;;;-0.81;87.80;95366.02;108100;1270;42500;-74